MSC Ingrid — HOHA — position and weather

sailwx.info

Track history (hours):
 
Tides and Currents Weather Stations Pressure Air Temp Water Temp Dewpoint Dewpoint Depression Visibility Wind Speed Wind Dir Waves Ship Positions

MSC Ingrid

Last reported at 2015-May-28 16:24 UTC. Time now 2015-May-29 12:10 UTC.
Position N 37°53' W 076°09'.

Length 294 m; draft 9.9 m.

Type: Ship (hazmat cat A). MMSI: 354505000.

Date/timePositionNaut miles runAvg speedWind from/ knotsBaromVisibWave heightAir tempDewpointWater temp
2015-May-28 16:24N 37°53' W 076°09'1618.8
2015-May-28 15:33N 38°08' W 076°14'4018.6
2015-May-28 13:24N 38°47' W 076°26'2513.5
2015-May-28 11:33N 39°12' W 076°29'4 4.3
2015-May-28 10:31N 39°15' W 076°33'0 0.0
2015-May-28 09:31N 39°15' W 076°33'0 0.0
2015-May-28 08:31N 39°15' W 076°33'0 0.0
2015-May-28 07:31N 39°15' W 076°33'0 0.0
2015-May-28 06:31N 39°15' W 076°33'0 0.0
2015-May-28 05:28N 39°15' W 076°33'0 0.0
2015-May-28 04:31N 39°15' W 076°33'0 0.0
2015-May-28 03:31N 39°15' W 076°33'0 0.0
2015-May-28 02:31N 39°15' W 076°33'0 0.0
2015-May-28 01:31N 39°15' W 076°33'0 0.0
2015-May-28 00:31N 39°15' W 076°33'0 0.0
2015-May-27 23:31N 39°15' W 076°33'0 0.0
2015-May-27 22:31N 39°15' W 076°33'0 0.0
2015-May-27 21:31N 39°15' W 076°33'0 0.0
2015-May-27 20:34N 39°15' W 076°33'0 0.0
2015-May-27 19:34N 39°15' W 076°33'0 0.0
2015-May-27 18:33N 39°15' W 076°33'0 0.0
2015-May-27 17:33N 39°15' W 076°33'0 0.0
2015-May-27 16:33N 39°15' W 076°33'0 0.0
2015-May-27 15:33N 39°15' W 076°33'0 0.0
2015-May-27 14:33N 39°15' W 076°33'0 0.0
2015-May-27 13:30N 39°15' W 076°33'0 0.0
2015-May-27 12:34N 39°15' W 076°33'0 0.0
2015-May-27 11:30N 39°15' W 076°33'0 0.0
2015-May-27 10:21N 39°15' W 076°33'0 0.0
2015-May-27 09:33N 39°15' W 076°33'5 5.2
2015-May-27 08:32N 39°11' W 076°28'1311.8
2015-May-27 07:28N 38°59' W 076°23'1515.8
2015-May-27 06:32N 38°45' W 076°26'1615.8
2015-May-27 05:33N 38°29' W 076°24'1916.5
2015-May-27 04:23N 38°11' W 076°14'1315.7
2015-May-27 03:33N 37°58' W 076°11'2015.0
2015-May-27 02:11N 37°38' W 076°07'1114.1
2015-May-27 01:26N 37°28' W 076°04'84 5.6
2015-May-26 10:26N 38°12' W 074°33'2312.2
2015-May-26 08:31N 38°32' W 074°19'2712.1
2015-May-26 06:17N 38°57' W 074°04'912.1
2015-May-26 05:33N 39°04' W 073°59'1212.1
2015-May-26 04:34N 39°16' W 073°54'1212.3
2015-May-26 03:34N 39°28' W 073°53'1212.5
2015-May-26 02:33N 39°41' W 073°52'1312.7
2015-May-26 01:33N 39°53' W 073°51'1312.9
2015-May-26 00:33N 40°06' W 073°50'1616.3
2015-May-25 23:34N 40°23' W 073°49'1211.6
2015-May-25 22:33N 40°31' W 073°59'10 9.9
2015-May-25 21:34N 40°39' W 074°08'3 2.6
2015-May-25 20:34N 40°41' W 074°09'0 0.0
2015-May-25 19:32N 40°41' W 074°09'0 0.0
2015-May-25 18:32N 40°41' W 074°09'0 0.0
2015-May-25 17:32N 40°41' W 074°09'0 0.0
2015-May-25 16:32N 40°41' W 074°09'0 0.0
2015-May-25 15:32N 40°41' W 074°09'0 0.0
2015-May-25 14:32N 40°41' W 074°09'0 0.0
2015-May-25 13:32N 40°41' W 074°09'0 0.0
2015-May-25 12:31N 40°41' W 074°09'0 0.0
2015-May-25 11:31N 40°41' W 074°09'0 0.0
2015-May-25 10:31N 40°41' W 074°09'0 0.0
2015-May-25 09:31N 40°41' W 074°09'0 0.0
2015-May-25 08:31N 40°41' W 074°09'0 0.0
2015-May-25 07:31N 40°41' W 074°09'0 0.0
2015-May-25 06:31N 40°41' W 074°09'0 0.0
2015-May-25 05:31N 40°41' W 074°09'0 0.0
2015-May-25 04:31N 40°41' W 074°09'0 0.0
2015-May-25 03:31N 40°41' W 074°09'0 0.0
2015-May-25 02:31N 40°41' W 074°09'0 0.0
2015-May-25 01:31N 40°41' W 074°09'0 0.0
2015-May-25 00:31N 40°41' W 074°09'1 1.0
2015-May-24 23:34N 40°40' W 074°08'2 1.8
2015-May-24 22:34N 40°39' W 074°09'7 6.6
2015-May-24 21:34N 40°35' W 074°02'1312.8
2015-May-24 20:33N 40°27' W 073°48'2 2.0
2015-May-24 19:33N 40°27' W 073°45'5 4.6
2015-May-24 18:33N 40°29' W 073°40'4 3.4
2015-May-24 17:30N 40°30' W 073°36'0 0.0
2015-May-24 16:33N 40°30' W 073°36'0 0.0
2015-May-24 15:27N 40°30' W 073°36'0 0.0
2015-May-24 14:30N 40°30' W 073°36'0 0.1
2015-May-24 13:33N 40°30' W 073°36'0 0.1
2015-May-24 12:33N 40°30' W 073°36'0 0.0
2015-May-24 11:34N 40°30' W 073°36'0 0.0
2015-May-24 10:33N 40°30' W 073°36'0 0.0
2015-May-24 09:31N 40°30' W 073°36'0 0.0
2015-May-24 08:33N 40°30' W 073°36'0 0.0
2015-May-24 07:31N 40°30' W 073°36'0 0.1
2015-May-24 06:33N 40°30' W 073°36'0 0.0
2015-May-24 05:32N 40°30' W 073°36'0 0.0
2015-May-24 04:32N 40°30' W 073°36'0 0.0
2015-May-24 03:32N 40°30' W 073°36'0 0.0
2015-May-24 02:32N 40°30' W 073°36'0 0.0
2015-May-24 01:32N 40°30' W 073°36'0 0.0
2015-May-24 00:32N 40°30' W 073°36'0 0.0
2015-May-23 23:32N 40°30' W 073°36'0 0.0
2015-May-23 22:29N 40°30' W 073°36'0 0.0
2015-May-23 21:32N 40°30' W 073°36'0 0.1
2015-May-23 20:17N 40°30' W 073°36'0 0.1
2015-May-23 17:26N 40°30' W 073°36'0 0.0
2015-May-23 14:26N 40°30' W 073°36'1 0.3
2015-May-23 11:20N 40°29' W 073°35'1010.8
2015-May-23 10:26N 40°21' W 073°41'1212.7
2015-May-23 09:29N 40°09' W 073°44'2210.8
2015-May-23 07:27N 39°47' W 073°40'7 8.1
2015-May-23 06:33N 39°40' W 073°42'1312.6
2015-May-23 05:33N 39°28' W 073°47'  
2015-May-21 00:33N 34°05' W 076°08'  
Track history (hours):
 
Tides and Currents Weather Stations Pressure Air Temp Water Temp Dewpoint Dewpoint Depression Visibility Wind Speed Wind Dir Waves Ship Positions

MSC Ingrid

Last reported at 2015-May-28 16:24 UTC. Time now 2015-May-29 12:10 UTC.
Position N 37°53' W 076°09'.

Length 294 m; draft 9.9 m.

Type: Ship (hazmat cat A). MMSI: 354505000.

Date/timePositionNaut miles runAvg speedWind from/ knotsBaromVisibWave heightAir tempDewpointWater temp
2015-May-28 16:24N 37°53' W 076°09'1618.8
2015-May-28 15:33N 38°08' W 076°14'4018.6
2015-May-28 13:24N 38°47' W 076°26'2513.5
2015-May-28 11:33N 39°12' W 076°29'4 4.3
2015-May-28 10:31N 39°15' W 076°33'0 0.0
2015-May-28 09:31N 39°15' W 076°33'0 0.0
2015-May-28 08:31N 39°15' W 076°33'0 0.0
2015-May-28 07:31N 39°15' W 076°33'0 0.0
2015-May-28 06:31N 39°15' W 076°33'0 0.0
2015-May-28 05:28N 39°15' W 076°33'0 0.0
2015-May-28 04:31N 39°15' W 076°33'0 0.0
2015-May-28 03:31N 39°15' W 076°33'0 0.0
2015-May-28 02:31N 39°15' W 076°33'0 0.0
2015-May-28 01:31N 39°15' W 076°33'0 0.0
2015-May-28 00:31N 39°15' W 076°33'0 0.0
2015-May-27 23:31N 39°15' W 076°33'0 0.0
2015-May-27 22:31N 39°15' W 076°33'0 0.0
2015-May-27 21:31N 39°15' W 076°33'0 0.0
2015-May-27 20:34N 39°15' W 076°33'0 0.0
2015-May-27 19:34N 39°15' W 076°33'0 0.0
2015-May-27 18:33N 39°15' W 076°33'0 0.0
2015-May-27 17:33N 39°15' W 076°33'0 0.0
2015-May-27 16:33N 39°15' W 076°33'0 0.0
2015-May-27 15:33N 39°15' W 076°33'0 0.0
2015-May-27 14:33N 39°15' W 076°33'0 0.0
2015-May-27 13:30N 39°15' W 076°33'0 0.0
2015-May-27 12:34N 39°15' W 076°33'0 0.0
2015-May-27 11:30N 39°15' W 076°33'0 0.0
2015-May-27 10:21N 39°15' W 076°33'0 0.0
2015-May-27 09:33N 39°15' W 076°33'5 5.2
2015-May-27 08:32N 39°11' W 076°28'1311.8
2015-May-27 07:28N 38°59' W 076°23'1515.8
2015-May-27 06:32N 38°45' W 076°26'1615.8
2015-May-27 05:33N 38°29' W 076°24'1916.5
2015-May-27 04:23N 38°11' W 076°14'1315.7
2015-May-27 03:33N 37°58' W 076°11'2015.0
2015-May-27 02:11N 37°38' W 076°07'1114.1
2015-May-27 01:26N 37°28' W 076°04'84 5.6
2015-May-26 10:26N 38°12' W 074°33'2312.2
2015-May-26 08:31N 38°32' W 074°19'2712.1
2015-May-26 06:17N 38°57' W 074°04'912.1
2015-May-26 05:33N 39°04' W 073°59'1212.1
2015-May-26 04:34N 39°16' W 073°54'1212.3
2015-May-26 03:34N 39°28' W 073°53'1212.5
2015-May-26 02:33N 39°41' W 073°52'1312.7
2015-May-26 01:33N 39°53' W 073°51'1312.9
2015-May-26 00:33N 40°06' W 073°50'1616.3
2015-May-25 23:34N 40°23' W 073°49'1211.6
2015-May-25 22:33N 40°31' W 073°59'10 9.9
2015-May-25 21:34N 40°39' W 074°08'3 2.6
2015-May-25 20:34N 40°41' W 074°09'0 0.0
2015-May-25 19:32N 40°41' W 074°09'0 0.0
2015-May-25 18:32N 40°41' W 074°09'0 0.0
2015-May-25 17:32N 40°41' W 074°09'0 0.0
2015-May-25 16:32N 40°41' W 074°09'0 0.0
2015-May-25 15:32N 40°41' W 074°09'0 0.0
2015-May-25 14:32N 40°41' W 074°09'0 0.0
2015-May-25 13:32N 40°41' W 074°09'0 0.0
2015-May-25 12:31N 40°41' W 074°09'0 0.0
2015-May-25 11:31N 40°41' W 074°09'0 0.0
2015-May-25 10:31N 40°41' W 074°09'0 0.0
2015-May-25 09:31N 40°41' W 074°09'0 0.0
2015-May-25 08:31N 40°41' W 074°09'0 0.0
2015-May-25 07:31N 40°41' W 074°09'0 0.0
2015-May-25 06:31N 40°41' W 074°09'0 0.0
2015-May-25 05:31N 40°41' W 074°09'0 0.0
2015-May-25 04:31N 40°41' W 074°09'0 0.0
2015-May-25 03:31N 40°41' W 074°09'0 0.0
2015-May-25 02:31N 40°41' W 074°09'0 0.0
2015-May-25 01:31N 40°41' W 074°09'0 0.0
2015-May-25 00:31N 40°41' W 074°09'1 1.0
2015-May-24 23:34N 40°40' W 074°08'2 1.8
2015-May-24 22:34N 40°39' W 074°09'7 6.6
2015-May-24 21:34N 40°35' W 074°02'1312.8
2015-May-24 20:33N 40°27' W 073°48'2 2.0
2015-May-24 19:33N 40°27' W 073°45'5 4.6
2015-May-24 18:33N 40°29' W 073°40'4 3.4
2015-May-24 17:30N 40°30' W 073°36'0 0.0
2015-May-24 16:33N 40°30' W 073°36'0 0.0
2015-May-24 15:27N 40°30' W 073°36'0 0.0
2015-May-24 14:30N 40°30' W 073°36'0 0.1
2015-May-24 13:33N 40°30' W 073°36'0 0.1
2015-May-24 12:33N 40°30' W 073°36'0 0.0
2015-May-24 11:34N 40°30' W 073°36'0 0.0
2015-May-24 10:33N 40°30' W 073°36'0 0.0
2015-May-24 09:31N 40°30' W 073°36'0 0.0
2015-May-24 08:33N 40°30' W 073°36'0 0.0
2015-May-24 07:31N 40°30' W 073°36'0 0.1
2015-May-24 06:33N 40°30' W 073°36'0 0.0
2015-May-24 05:32N 40°30' W 073°36'0 0.0
2015-May-24 04:32N 40°30' W 073°36'0 0.0
2015-May-24 03:32N 40°30' W 073°36'0 0.0
2015-May-24 02:32N 40°30' W 073°36'0 0.0
2015-May-24 01:32N 40°30' W 073°36'0 0.0
2015-May-24 00:32N 40°30' W 073°36'0 0.0
2015-May-23 23:32N 40°30' W 073°36'0 0.0
2015-May-23 22:29N 40°30' W 073°36'0 0.0
2015-May-23 21:32N 40°30' W 073°36'0 0.1
2015-May-23 20:17N 40°30' W 073°36'0 0.1
2015-May-23 17:26N 40°30' W 073°36'0 0.0
2015-May-23 14:26N 40°30' W 073°36'1 0.3
2015-May-23 11:20N 40°29' W 073°35'1010.8
2015-May-23 10:26N 40°21' W 073°41'1212.7
2015-May-23 09:29N 40°09' W 073°44'2210.8
2015-May-23 07:27N 39°47' W 073°40'7 8.1
2015-May-23 06:33N 39°40' W 073°42'1312.6
2015-May-23 05:33N 39°28' W 073°47'  
2015-May-21 00:33N 34°05' W 076°08'  

Dump ship's entire track history